クグルクトゥク の空港の天気 - METARとTAF

Coppermine ( CYCO / YCO ) - カナダ ヌナブト準州Kugluktuk
飛行場実況気象(Metar)
観測時間01/19 04:00 MST (01/19 11:00 UTC)
風向・風速不定 1m/s
視程10km以上
天気現象
なし
気温-31℃
湿度68%
気圧1032.3hPa
METARCYCO 191100Z VRB02KT 15SM SKC M31/M35 A3047 RMK FROIN SLP323
過去の天気等 Google飛行場航空写真 Wunderground天気予報

過去48時間のMETAR

飛行場予報(TAF)
発表時間: 1/18 23:38 MST (1/19 06:38 UTC)
予報対象時間: 19日0時 MST ~ 19日12時 MST
風向・風速南西 6m/s
視程10km以上
なし
TAF CYCO 190638Z 1907/1919 23012KT P6SM SKC RMK NXT FCST BY 191300Z